Pops — WDC8157 — position and weather

sailwx.info

Track history (hours):
 
Tides and Currents Weather Stations Pressure Air Temp Water Temp Dewpoint Dewpoint Depression Visibility Wind Speed Wind Dir Waves Ship Positions

Pops

Owner: GORE MARINE CORPORATION, MERIDIAN, GA. More information available from US FCC via Universal Licensing System and Coast Guard Vessel Documentation Center.

Last reported at 2017-Sep-17 12:37 UTC. Time now 2017-Sep-24 10:16 UTC.
Position N 39°22' W 074°26'.

Length 22 m; draft 3.5 m.

Type: Tug. MMSI: 367082540.

Date/timePositionNaut miles runAvg speedWind from/ knotsBaromVisibWave heightAir tempDewpointWater temp
2017-Sep-17 12:37N 39°22' W 074°26'0 0.1
2017-Sep-17 12:08N 39°22' W 074°26'0 0.9
2017-Sep-17 12:00N 39°23' W 074°26'1 1.0
2017-Sep-17 11:12N 39°23' W 074°26'0 0.0
2017-Sep-17 05:05N 39°23' W 074°26'0 0.0
2017-Sep-17 04:52N 39°23' W 074°26'0 0.0
2017-Sep-17 04:23N 39°23' W 074°26'0 0.0
2017-Sep-17 03:59N 39°23' W 074°26'0 0.0
2017-Sep-17 03:25N 39°23' W 074°26'0 0.0
2017-Sep-17 03:00N 39°23' W 074°26'0 0.0
2017-Sep-17 02:31N 39°23' W 074°26'0 0.0
2017-Sep-17 01:54N 39°23' W 074°26'0 0.0
2017-Sep-17 01:30N 39°23' W 074°26'0 0.0
2017-Sep-17 01:00N 39°23' W 074°26'0 0.0
2017-Sep-17 00:12N 39°23' W 074°26'25 2.5
2017-Sep-16 14:27N 39°02' W 074°43'4 8.7
2017-Sep-16 14:00N 38°59' W 074°46'4 8.9
2017-Sep-16 13:30N 38°57' W 074°50'3 5.9
2017-Sep-16 13:00N 38°57' W 074°54'1 0.9
2017-Sep-16 12:09N 38°57' W 074°53'0 0.1
2017-Sep-16 12:00N 38°57' W 074°53'0 0.1
2017-Sep-16 11:30N 38°57' W 074°53'1 1.2
2017-Sep-16 10:48N 38°57' W 074°54'0 0.0
2017-Sep-16 10:30N 38°57' W 074°54'0 0.0
2017-Sep-16 08:26N 38°57' W 074°54'1 1.6
2017-Sep-16 07:56N 38°57' W 074°53'0 0.0
2017-Sep-16 07:23N 38°57' W 074°53'0 0.0
2017-Sep-16 07:01N 38°57' W 074°53'0 0.0
2017-Sep-16 06:30N 38°57' W 074°53'0 0.0
2017-Sep-16 06:00N 38°57' W 074°53'0 0.0
2017-Sep-16 05:20N 38°57' W 074°53'0 0.0
2017-Sep-16 03:16N 38°57' W 074°53'0 0.0
2017-Sep-16 03:01N 38°57' W 074°53'0 0.0
2017-Sep-16 02:31N 38°57' W 074°53'0 0.0
2017-Sep-16 02:00N 38°57' W 074°53'0 0.0
2017-Sep-16 01:30N 38°57' W 074°53'0 0.0
2017-Sep-16 01:00N 38°57' W 074°53'0 0.0
2017-Sep-16 00:29N 38°57' W 074°53'0 0.0
2017-Sep-15 23:58N 38°57' W 074°53'34 3.1
2017-Sep-15 13:06N 39°23' W 074°26'0 0.0
2017-Sep-15 12:42N 39°23' W 074°25'0 0.1
2017-Sep-15 12:28N 39°23' W 074°25'0 0.5
2017-Sep-15 11:45N 39°24' W 074°26'0 0.1
2017-Sep-15 11:26N 39°24' W 074°26'0 0.8
2017-Sep-15 11:00N 39°23' W 074°26'0 0.0
2017-Sep-15 10:18N 39°23' W 074°26'0 0.0
2017-Sep-15 10:00N 39°23' W 074°26'0 0.0
2017-Sep-14 13:35N 39°23' W 074°25'0 0.1
2017-Sep-14 13:27N 39°23' W 074°25'0 0.0
2017-Sep-14 13:01N 39°23' W 074°26'0 0.2
2017-Sep-14 12:30N 39°23' W 074°25'0 0.1
2017-Sep-14 10:20N 39°23' W 074°26'0 0.0
2017-Sep-14 09:59N 39°23' W 074°26'0 0.0
2017-Sep-14 09:31N 39°23' W 074°26'0 0.0
2017-Sep-14 09:00N 39°23' W 074°26'0 0.0
2017-Sep-14 08:30N 39°23' W 074°26'0 0.0
2017-Sep-14 08:00N 39°23' W 074°26'0 0.0
2017-Sep-14 07:31N 39°23' W 074°26'0 0.0
2017-Sep-14 07:00N 39°23' W 074°26'0 0.0
2017-Sep-14 06:30N 39°23' W 074°26'0 0.0
2017-Sep-14 06:00N 39°23' W 074°26'0 0.0
2017-Sep-14 05:30N 39°23' W 074°26'0 0.0
2017-Sep-14 04:57N 39°23' W 074°26'0 0.0
2017-Sep-14 04:30N 39°23' W 074°26'0 0.0
2017-Sep-14 04:00N 39°23' W 074°26'0 0.0
2017-Sep-13 14:18N 39°23' W 074°26'0 0.0
2017-Sep-13 13:50N 39°23' W 074°26'0 0.0
2017-Sep-13 13:30N 39°23' W 074°26'0 0.0
2017-Sep-13 13:00N 39°23' W 074°26'0 0.0
2017-Sep-13 12:30N 39°23' W 074°26'0 0.0
2017-Sep-13 12:00N 39°23' W 074°26'0 0.0
2017-Sep-13 11:30N 39°23' W 074°26'0 0.0
2017-Sep-13 11:00N 39°23' W 074°26'0 0.0
2017-Sep-13 10:31N 39°23' W 074°26'0 0.0
2017-Sep-13 10:01N 39°23' W 074°26'0 0.0
2017-Sep-13 09:31N 39°23' W 074°26'0 0.0
2017-Sep-13 09:00N 39°23' W 074°26'0 0.0
2017-Sep-13 08:31N 39°23' W 074°26'0 0.0
2017-Sep-13 08:00N 39°23' W 074°26'0 0.0
2017-Sep-13 07:30N 39°23' W 074°26'0 0.0
2017-Sep-13 07:00N 39°23' W 074°26'0 0.0
2017-Sep-13 06:31N 39°23' W 074°26'0 0.0
2017-Sep-13 06:01N 39°23' W 074°26'0 0.0
2017-Sep-13 05:30N 39°23' W 074°26'0 0.0
2017-Sep-13 05:00N 39°23' W 074°26'0 0.0
2017-Sep-13 04:31N 39°23' W 074°26'0 0.0
2017-Sep-13 04:00N 39°23' W 074°26'0 0.0
2017-Sep-13 03:30N 39°23' W 074°26'0 0.0
2017-Sep-13 03:01N 39°23' W 074°26'0 0.0
2017-Sep-13 02:30N 39°23' W 074°26'0 0.0
2017-Sep-13 02:00N 39°23' W 074°26'0 0.0
2017-Sep-13 01:30N 39°23' W 074°26'0 0.0
2017-Sep-13 01:00N 39°23' W 074°26'0 0.0
2017-Sep-13 00:30N 39°23' W 074°26'0 0.4
2017-Sep-12 23:58N 39°23' W 074°26'0 0.5
2017-Sep-12 23:29N 39°23' W 074°26'0 0.1
2017-Sep-12 22:05N 39°23' W 074°25'30 6.1
2017-Sep-12 17:13N 38°59' W 074°47'1 6.1
2017-Sep-12 17:00N 38°58' W 074°48'4 4.5
2017-Sep-12 16:05N 38°57' W 074°53'0 0.1
2017-Sep-12 15:57N 38°57' W 074°53'0 0.5
2017-Sep-12 15:27N 38°57' W 074°53'11 7.9
2017-Sep-12 14:02N 39°05' W 074°42'0 8.9
2017-Sep-12 14:00N 39°05' W 074°42'4 8.8
2017-Sep-12 13:30N 39°08' W 074°39'5 8.7
2017-Sep-12 12:59N 39°12' W 074°35'14 1.8
2017-Sep-12 05:31N 39°23' W 074°26'0 0.0
2017-Sep-12 05:11N 39°23' W 074°26'0 0.0
2017-Sep-12 04:43N 39°23' W 074°26'0 0.0
2017-Sep-12 04:29N 39°23' W 074°26'0 0.0
2017-Sep-11 13:41N 39°24' W 074°26'0 0.2
2017-Sep-11 13:11N 39°24' W 074°26'0 0.1
2017-Sep-11 12:42N 39°24' W 074°26'0 1.4
2017-Sep-11 12:31N 39°23' W 074°26'0 0.2
2017-Sep-11 11:54N 39°23' W 074°25'1 2.0
2017-Sep-11 11:30N 39°23' W 074°25'0 0.5
2017-Sep-11 11:00N 39°22' W 074°26'0 0.0
2017-Sep-11 10:31N 39°22' W 074°26'34 0.7
2017-Sep-09 09:27N 38°57' W 074°54'34 1.6
2017-Sep-08 12:15N 39°23' W 074°25'0 0.2
2017-Sep-08 11:20N 39°23' W 074°26'1 1.2
2017-Sep-08 10:37N 39°23' W 074°26'0 1.0
2017-Sep-08 10:28N 39°22' W 074°26'0 0.0
2017-Sep-08 10:00N 39°22' W 074°26'1 0.6
2017-Sep-08 08:42N 39°23' W 074°26'0 0.2
2017-Sep-08 08:29N 39°23' W 074°26'0 0.0
2017-Sep-07 12:52N 39°23' W 074°25'  
Track history (hours):
 
Tides and Currents Weather Stations Pressure Air Temp Water Temp Dewpoint Dewpoint Depression Visibility Wind Speed Wind Dir Waves Ship Positions

Pops

Owner: GORE MARINE CORPORATION, MERIDIAN, GA. More information available from US FCC via Universal Licensing System and Coast Guard Vessel Documentation Center.

Last reported at 2017-Sep-17 12:37 UTC. Time now 2017-Sep-24 10:16 UTC.
Position N 39°22' W 074°26'.

Length 22 m; draft 3.5 m.

Type: Tug. MMSI: 367082540.

Date/timePositionNaut miles runAvg speedWind from/ knotsBaromVisibWave heightAir tempDewpointWater temp
2017-Sep-17 12:37N 39°22' W 074°26'0 0.1
2017-Sep-17 12:08N 39°22' W 074°26'0 0.9
2017-Sep-17 12:00N 39°23' W 074°26'1 1.0
2017-Sep-17 11:12N 39°23' W 074°26'0 0.0
2017-Sep-17 05:05N 39°23' W 074°26'0 0.0
2017-Sep-17 04:52N 39°23' W 074°26'0 0.0
2017-Sep-17 04:23N 39°23' W 074°26'0 0.0
2017-Sep-17 03:59N 39°23' W 074°26'0 0.0
2017-Sep-17 03:25N 39°23' W 074°26'0 0.0
2017-Sep-17 03:00N 39°23' W 074°26'0 0.0
2017-Sep-17 02:31N 39°23' W 074°26'0 0.0
2017-Sep-17 01:54N 39°23' W 074°26'0 0.0
2017-Sep-17 01:30N 39°23' W 074°26'0 0.0
2017-Sep-17 01:00N 39°23' W 074°26'0 0.0
2017-Sep-17 00:12N 39°23' W 074°26'25 2.5
2017-Sep-16 14:27N 39°02' W 074°43'4 8.7
2017-Sep-16 14:00N 38°59' W 074°46'4 8.9
2017-Sep-16 13:30N 38°57' W 074°50'3 5.9
2017-Sep-16 13:00N 38°57' W 074°54'1 0.9
2017-Sep-16 12:09N 38°57' W 074°53'0 0.1
2017-Sep-16 12:00N 38°57' W 074°53'0 0.1
2017-Sep-16 11:30N 38°57' W 074°53'1 1.2
2017-Sep-16 10:48N 38°57' W 074°54'0 0.0
2017-Sep-16 10:30N 38°57' W 074°54'0 0.0
2017-Sep-16 08:26N 38°57' W 074°54'1 1.6
2017-Sep-16 07:56N 38°57' W 074°53'0 0.0
2017-Sep-16 07:23N 38°57' W 074°53'0 0.0
2017-Sep-16 07:01N 38°57' W 074°53'0 0.0
2017-Sep-16 06:30N 38°57' W 074°53'0 0.0
2017-Sep-16 06:00N 38°57' W 074°53'0 0.0
2017-Sep-16 05:20N 38°57' W 074°53'0 0.0
2017-Sep-16 03:16N 38°57' W 074°53'0 0.0
2017-Sep-16 03:01N 38°57' W 074°53'0 0.0
2017-Sep-16 02:31N 38°57' W 074°53'0 0.0
2017-Sep-16 02:00N 38°57' W 074°53'0 0.0
2017-Sep-16 01:30N 38°57' W 074°53'0 0.0
2017-Sep-16 01:00N 38°57' W 074°53'0 0.0
2017-Sep-16 00:29N 38°57' W 074°53'0 0.0
2017-Sep-15 23:58N 38°57' W 074°53'34 3.1
2017-Sep-15 13:06N 39°23' W 074°26'0 0.0
2017-Sep-15 12:42N 39°23' W 074°25'0 0.1
2017-Sep-15 12:28N 39°23' W 074°25'0 0.5
2017-Sep-15 11:45N 39°24' W 074°26'0 0.1
2017-Sep-15 11:26N 39°24' W 074°26'0 0.8
2017-Sep-15 11:00N 39°23' W 074°26'0 0.0
2017-Sep-15 10:18N 39°23' W 074°26'0 0.0
2017-Sep-15 10:00N 39°23' W 074°26'0 0.0
2017-Sep-14 13:35N 39°23' W 074°25'0 0.1
2017-Sep-14 13:27N 39°23' W 074°25'0 0.0
2017-Sep-14 13:01N 39°23' W 074°26'0 0.2
2017-Sep-14 12:30N 39°23' W 074°25'0 0.1
2017-Sep-14 10:20N 39°23' W 074°26'0 0.0
2017-Sep-14 09:59N 39°23' W 074°26'0 0.0
2017-Sep-14 09:31N 39°23' W 074°26'0 0.0
2017-Sep-14 09:00N 39°23' W 074°26'0 0.0
2017-Sep-14 08:30N 39°23' W 074°26'0 0.0
2017-Sep-14 08:00N 39°23' W 074°26'0 0.0
2017-Sep-14 07:31N 39°23' W 074°26'0 0.0
2017-Sep-14 07:00N 39°23' W 074°26'0 0.0
2017-Sep-14 06:30N 39°23' W 074°26'0 0.0
2017-Sep-14 06:00N 39°23' W 074°26'0 0.0
2017-Sep-14 05:30N 39°23' W 074°26'0 0.0
2017-Sep-14 04:57N 39°23' W 074°26'0 0.0
2017-Sep-14 04:30N 39°23' W 074°26'0 0.0
2017-Sep-14 04:00N 39°23' W 074°26'0 0.0
2017-Sep-13 14:18N 39°23' W 074°26'0 0.0
2017-Sep-13 13:50N 39°23' W 074°26'0 0.0
2017-Sep-13 13:30N 39°23' W 074°26'0 0.0
2017-Sep-13 13:00N 39°23' W 074°26'0 0.0
2017-Sep-13 12:30N 39°23' W 074°26'0 0.0
2017-Sep-13 12:00N 39°23' W 074°26'0 0.0
2017-Sep-13 11:30N 39°23' W 074°26'0 0.0
2017-Sep-13 11:00N 39°23' W 074°26'0 0.0
2017-Sep-13 10:31N 39°23' W 074°26'0 0.0
2017-Sep-13 10:01N 39°23' W 074°26'0 0.0
2017-Sep-13 09:31N 39°23' W 074°26'0 0.0
2017-Sep-13 09:00N 39°23' W 074°26'0 0.0
2017-Sep-13 08:31N 39°23' W 074°26'0 0.0
2017-Sep-13 08:00N 39°23' W 074°26'0 0.0
2017-Sep-13 07:30N 39°23' W 074°26'0 0.0
2017-Sep-13 07:00N 39°23' W 074°26'0 0.0
2017-Sep-13 06:31N 39°23' W 074°26'0 0.0
2017-Sep-13 06:01N 39°23' W 074°26'0 0.0
2017-Sep-13 05:30N 39°23' W 074°26'0 0.0
2017-Sep-13 05:00N 39°23' W 074°26'0 0.0
2017-Sep-13 04:31N 39°23' W 074°26'0 0.0
2017-Sep-13 04:00N 39°23' W 074°26'0 0.0
2017-Sep-13 03:30N 39°23' W 074°26'0 0.0
2017-Sep-13 03:01N 39°23' W 074°26'0 0.0
2017-Sep-13 02:30N 39°23' W 074°26'0 0.0
2017-Sep-13 02:00N 39°23' W 074°26'0 0.0
2017-Sep-13 01:30N 39°23' W 074°26'0 0.0
2017-Sep-13 01:00N 39°23' W 074°26'0 0.0
2017-Sep-13 00:30N 39°23' W 074°26'0 0.4
2017-Sep-12 23:58N 39°23' W 074°26'0 0.5
2017-Sep-12 23:29N 39°23' W 074°26'0 0.1
2017-Sep-12 22:05N 39°23' W 074°25'30 6.1
2017-Sep-12 17:13N 38°59' W 074°47'1 6.1
2017-Sep-12 17:00N 38°58' W 074°48'4 4.5
2017-Sep-12 16:05N 38°57' W 074°53'0 0.1
2017-Sep-12 15:57N 38°57' W 074°53'0 0.5
2017-Sep-12 15:27N 38°57' W 074°53'11 7.9
2017-Sep-12 14:02N 39°05' W 074°42'0 8.9
2017-Sep-12 14:00N 39°05' W 074°42'4 8.8
2017-Sep-12 13:30N 39°08' W 074°39'5 8.7
2017-Sep-12 12:59N 39°12' W 074°35'14 1.8
2017-Sep-12 05:31N 39°23' W 074°26'0 0.0
2017-Sep-12 05:11N 39°23' W 074°26'0 0.0
2017-Sep-12 04:43N 39°23' W 074°26'0 0.0
2017-Sep-12 04:29N 39°23' W 074°26'0 0.0
2017-Sep-11 13:41N 39°24' W 074°26'0 0.2
2017-Sep-11 13:11N 39°24' W 074°26'0 0.1
2017-Sep-11 12:42N 39°24' W 074°26'0 1.4
2017-Sep-11 12:31N 39°23' W 074°26'0 0.2
2017-Sep-11 11:54N 39°23' W 074°25'1 2.0
2017-Sep-11 11:30N 39°23' W 074°25'0 0.5
2017-Sep-11 11:00N 39°22' W 074°26'0 0.0
2017-Sep-11 10:31N 39°22' W 074°26'34 0.7
2017-Sep-09 09:27N 38°57' W 074°54'34 1.6
2017-Sep-08 12:15N 39°23' W 074°25'0 0.2
2017-Sep-08 11:20N 39°23' W 074°26'1 1.2
2017-Sep-08 10:37N 39°23' W 074°26'0 1.0
2017-Sep-08 10:28N 39°22' W 074°26'0 0.0
2017-Sep-08 10:00N 39°22' W 074°26'1 0.6
2017-Sep-08 08:42N 39°23' W 074°26'0 0.2
2017-Sep-08 08:29N 39°23' W 074°26'0 0.0
2017-Sep-07 12:52N 39°23' W 074°25'  

Dump ship's entire track history